Главная страница
METAR-TAF:

METAR-TAF

Аэропорты :

Орск, Россия

широта: 51-04-18N, долгота: 058-35-48E, высота над уровнем моря: 277 м

Текущие метеонаблюдения

Эта сводка был подготовлена 24 минут назад, в 06:00 UTC
Ветер 8 Узел от северно-северо-западный
Температура 24°C
Влажность 47%
Давление 1009 hPa
Видимость 10 км и более
Нет облачности ниже 1500 м, и нет кучево-дождевой облачности

METAR: UWOR 230600Z 34004MPS CAVOK 24/12 Q1009 R25/CLRD65 NOSIG RMK QFE733/0977

Время: 11:24 (06:24 UTC)

Прогноз

Эта сводка был подготовлена 1 час и 24 минут назад, в 05:00 UTC
Прогноз действительный с 23-го 06 UTC до 23-го 15 UTC
Ветер 12 Узел от северо-западный
Видимость 10 км и более
Рассеянная облачность на высоте 4000 фута
временами
С 23-го 06 UTC до 23-го 12 UTC
Ветер 16 Узел от северно-северо-западный с порывами до 27 Узел

TAF: UWOR 230500Z 2306/2315 32006MPS 9999 BKN040 TEMPO 2306/2312 34008G14MPS

Метеонаблюдения и прогнозы для более 4000 аэропортов (сводки METAR и TAF).

Имеющиеся станции представлены на карте желтыми и красными точками.

Чтобы увидеть название станции, наведите на нее мышь.

Затем щелкните, чтобы увидеть метеонаблюдения и метеопрогнозы.

Управление картой: чтобы увеличить масштаб, щелкните зеленые кнопки с черным крестиком; чтобы уменьшить масштаб, щелкните зеленую кнопку с тире; для просмотра соседних карт щелкайте зеленые стрелки.


METAR-TAF: